createdAt,value
2023-11-27T00:00:48.408Z,100260.34
2023-11-27T00:03:15.091Z,100261.75
2023-11-27T00:05:41.737Z,100261.88
2023-11-27T00:08:12.314Z,100259.22
2023-11-27T00:10:40.519Z,100249.34
2023-11-27T00:13:08.254Z,100243.31
2023-11-27T00:15:36.536Z,100243.84
2023-11-27T00:18:03.109Z,100242.63
2023-11-27T00:20:29.685Z,100251.34
2023-11-27T00:22:57.276Z,100237.81
2023-11-27T00:25:24.871Z,100235.97
2023-11-27T00:27:51.486Z,100230.91
2023-11-27T00:30:19.132Z,100226.66
2023-11-27T00:32:45.732Z,100223.28
2023-11-27T00:35:12.321Z,100232.44
2023-11-27T00:37:39.915Z,100212.50
2023-11-27T00:40:08.373Z,100224.44
2023-11-27T00:42:36.033Z,100221.91
2023-11-27T00:45:02.609Z,100227.94
2023-11-27T00:47:30.305Z,100224.88
2023-11-27T00:49:56.868Z,100218.41
2023-11-27T00:52:24.535Z,100213.06
2023-11-27T00:54:51.089Z,100209.81
2023-11-27T00:57:18.795Z,100211.38
2023-11-27T00:59:45.388Z,100213.47
2023-11-27T01:02:12.133Z,100221.50
2023-11-27T01:04:40.789Z,100216.19
2023-11-27T01:07:07.807Z,100207.59
2023-11-27T01:09:35.795Z,100212.97
2023-11-27T01:12:02.498Z,100200.19
2023-11-27T01:14:29.100Z,100202.56
2023-11-27T01:16:56.750Z,100200.88
2023-11-27T01:19:24.622Z,100206.63
2023-11-27T01:21:51.166Z,100196.75
2023-11-27T01:24:17.749Z,100197.44
2023-11-27T01:26:45.303Z,100197.31
2023-11-27T01:29:11.880Z,100187.59
2023-11-27T01:31:39.474Z,100181.41
2023-11-27T01:34:07.192Z,100188.59
2023-11-27T01:36:33.796Z,100192.25
2023-11-27T01:39:00.354Z,100190.56
2023-11-27T01:41:27.960Z,100181.69
2023-11-27T01:43:54.511Z,100184.22
2023-11-27T01:46:28.209Z,100192.56
2023-11-27T01:48:56.272Z,100186.91
2023-11-27T01:51:33.091Z,100195.91
2023-11-27T01:54:00.396Z,100189.72
2023-11-27T01:56:30.560Z,100190.56
2023-11-27T01:58:59.802Z,100186.50
2023-11-27T02:01:28.836Z,100189.44
2023-11-27T02:03:55.286Z,100189.72
2023-11-27T02:06:23.138Z,100194.22
2023-11-27T02:08:51.963Z,100193.41
2023-11-27T02:11:19.782Z,100184.00
2023-11-27T02:13:46.790Z,100185.84
2023-11-27T02:16:14.284Z,100187.97
2023-11-27T02:18:41.964Z,100182.75
2023-11-27T02:21:08.964Z,100183.47
2023-11-27T02:23:36.635Z,100177.56
2023-11-27T02:26:03.258Z,100179.09
2023-11-27T02:28:30.945Z,100178.09
2023-11-27T02:30:57.568Z,100183.91
2023-11-27T02:33:25.255Z,100196.97
2023-11-27T02:35:52.186Z,100186.97
2023-11-27T02:38:19.868Z,100180.78
2023-11-27T02:40:46.844Z,100180.25
2023-11-27T02:43:14.504Z,100173.06
2023-11-27T02:45:41.214Z,100183.47
2023-11-27T02:48:08.897Z,100164.19
2023-11-27T02:50:35.461Z,100172.06
2023-11-27T02:53:03.064Z,100159.16
2023-11-27T02:55:29.636Z,100164.34
2023-11-27T02:57:57.289Z,100162.66
2023-11-27T03:00:23.867Z,100162.81
2023-11-27T03:02:51.630Z,100162.81
2023-11-27T03:05:18.609Z,100160.97
2023-11-27T03:07:45.264Z,100149.72
2023-11-27T03:10:15.117Z,100153.84
2023-11-27T03:12:42.804Z,100157.81
2023-11-27T03:15:10.516Z,100149.78
2023-11-27T03:17:40.917Z,100149.25
2023-11-27T03:20:12.700Z,100154.59
2023-11-27T03:22:43.987Z,100150.91
2023-11-27T03:25:10.702Z,100128.25
2023-11-27T03:27:37.354Z,100133.19
2023-11-27T03:30:06.167Z,100135.72
2023-11-27T03:32:34.107Z,100127.25
2023-11-27T03:35:01.870Z,100126.56
2023-11-27T03:37:29.532Z,100126.56
2023-11-27T03:39:56.109Z,100126.44
2023-11-27T03:42:22.708Z,100125.31
2023-11-27T03:44:50.355Z,100127.13
2023-11-27T03:47:16.929Z,100133.19
2023-11-27T03:49:43.522Z,100135.16
2023-11-27T03:52:11.175Z,100140.78
2023-11-27T03:54:37.825Z,100148.09
2023-11-27T03:57:05.624Z,100128.72
2023-11-27T03:59:33.482Z,100138.16
2023-11-27T04:02:01.591Z,100141.38
2023-11-27T04:04:28.305Z,100132.81
2023-11-27T04:06:56.607Z,100142.06
2023-11-27T04:09:23.268Z,100137.88
2023-11-27T04:11:51.048Z,100138.00
2023-11-27T04:14:17.661Z,100142.22
2023-11-27T04:16:45.420Z,100135.34
2023-11-27T04:19:13.209Z,100135.47
2023-11-27T04:21:39.887Z,100135.47
2023-11-27T04:24:08.356Z,100128.75
2023-11-27T04:26:35.100Z,100130.72
2023-11-27T04:29:02.792Z,100129.75
2023-11-27T04:31:29.388Z,100124.84
2023-11-27T04:33:57.127Z,100108.28
2023-11-27T04:36:23.731Z,100115.88
2023-11-27T04:38:51.331Z,100121.34
2023-11-27T04:41:18.269Z,100117.16
2023-11-27T04:43:44.814Z,100116.31
2023-11-27T04:46:12.640Z,100116.31
2023-11-27T04:48:39.436Z,100109.84
2023-11-27T04:51:07.502Z,100106.31
2023-11-27T04:53:34.090Z,100108.16
2023-11-27T04:56:04.376Z,100116.16
2023-11-27T04:58:32.594Z,100112.50
2023-11-27T05:01:01.822Z,100115.03
2023-11-27T05:03:29.443Z,100113.75
2023-11-27T05:05:56.209Z,100117.00
2023-11-27T05:08:23.811Z,100126.00
2023-11-27T05:10:50.543Z,100122.75
2023-11-27T05:13:17.266Z,100118.13
2023-11-27T05:15:48.261Z,100108.84
2023-11-27T05:18:14.840Z,100113.06
2023-11-27T05:20:42.484Z,100107.16
2023-11-27T05:23:09.101Z,100109.53
2023-11-27T05:25:36.789Z,100105.19
2023-11-27T05:28:03.463Z,100104.34
2023-11-27T05:30:31.146Z,100095.78
2023-11-27T05:32:59.425Z,100100.28
2023-11-27T05:35:30.130Z,100107.44
2023-11-27T05:37:58.797Z,100104.91
2023-11-27T05:40:27.717Z,100095.06
2023-11-27T05:42:54.380Z,100103.50
2023-11-27T05:45:22.010Z,100094.34
2023-11-27T05:47:48.620Z,100088.31
2023-11-27T05:50:15.174Z,100082.69
2023-11-27T05:52:43.531Z,100087.03
2023-11-27T05:55:10.386Z,100078.88
2023-11-27T05:57:38.339Z,100076.63
2023-11-27T06:00:05.584Z,100077.34
2023-11-27T06:02:32.258Z,100081.69
2023-11-27T06:04:59.974Z,100076.34
2023-11-27T06:07:27.658Z,100079.47
2023-11-27T06:09:54.318Z,100070.06
2023-11-27T06:12:22.068Z,100077.91
2023-11-27T06:14:49.698Z,100067.09
2023-11-27T06:17:16.360Z,100075.41
2023-11-27T06:19:42.948Z,100064.81
2023-11-27T06:22:10.573Z,100077.22
2023-11-27T06:24:41.118Z,100075.66
2023-11-27T06:27:08.731Z,100071.88
2023-11-27T06:29:35.306Z,100071.16
2023-11-27T06:32:03.004Z,100081.00
2023-11-27T06:34:29.676Z,100085.25
2023-11-27T06:36:56.312Z,100093.50
2023-11-27T06:39:23.986Z,100105.88
2023-11-27T06:41:50.567Z,100106.88
2023-11-27T06:44:18.216Z,100102.50
2023-11-27T06:46:46.558Z,100099.00
2023-11-27T06:49:13.470Z,100099.84
2023-11-27T06:51:41.617Z,100091.28
2023-11-27T06:54:08.188Z,100098.44
2023-11-27T06:56:37.763Z,100106.03
2023-11-27T06:59:07.899Z,100090.28
2023-11-27T07:01:34.715Z,100096.88
2023-11-27T07:04:04.713Z,100100.41
2023-11-27T07:06:31.421Z,100080.44
2023-11-27T07:08:59.083Z,100092.53
2023-11-27T07:11:26.192Z,100102.66
2023-11-27T07:13:53.918Z,100099.44
2023-11-27T07:16:20.636Z,100105.63
2023-11-27T07:18:47.405Z,100109.00
2023-11-27T07:21:15.189Z,100107.00
2023-11-27T07:23:41.762Z,100102.50
2023-11-27T07:26:10.123Z,100104.03
2023-11-27T07:28:39.403Z,100109.53
2023-11-27T07:31:06.087Z,100112.34
2023-11-27T07:33:33.737Z,100111.66
2023-11-27T07:36:00.460Z,100108.28
2023-11-27T07:38:28.062Z,100114.88
2023-11-27T07:40:54.609Z,100118.97
2023-11-27T07:43:22.253Z,100114.03
2023-11-27T07:45:48.881Z,100114.34
2023-11-27T07:48:16.577Z,100126.00
2023-11-27T07:50:44.329Z,100125.03
2023-11-27T07:53:10.958Z,100126.28
2023-11-27T07:55:38.862Z,100126.69
2023-11-27T07:58:06.752Z,100138.53
2023-11-27T08:00:34.154Z,100143.16
2023-11-27T08:03:01.810Z,100137.97
2023-11-27T08:05:28.496Z,100140.50
2023-11-27T08:07:56.193Z,100144.72
2023-11-27T08:10:23.887Z,100138.94
2023-11-27T08:12:51.930Z,100157.78
2023-11-27T08:15:18.581Z,100152.75
2023-11-27T08:17:50.392Z,100155.13
2023-11-27T08:20:18.063Z,100165.94
2023-11-27T08:22:45.024Z,100164.25
2023-11-27T08:25:13.759Z,100167.50
2023-11-27T08:27:40.329Z,100162.28
2023-11-27T08:30:08.463Z,100185.50
2023-11-27T08:32:36.182Z,100166.34
2023-11-27T08:35:02.833Z,100168.19
2023-11-27T08:37:29.489Z,100179.44
2023-11-27T08:39:57.194Z,100166.50
2023-11-27T08:42:23.791Z,100170.84
2023-11-27T08:44:51.401Z,100167.63
2023-11-27T08:47:18.005Z,100173.53
2023-11-27T08:49:45.644Z,100174.38
2023-11-27T08:52:13.279Z,100166.34
2023-11-27T08:54:39.864Z,100169.19
2023-11-27T08:57:06.447Z,100176.91
2023-11-27T08:59:34.042Z,100169.03
2023-11-27T09:02:00.693Z,100185.06
2023-11-27T09:04:28.376Z,100186.03
2023-11-27T09:06:54.967Z,100190.81
2023-11-27T09:09:21.568Z,100186.03
2023-11-27T09:11:49.248Z,100201.78
2023-11-27T09:14:15.822Z,100201.78
2023-11-27T09:16:43.603Z,100206.56
2023-11-27T09:19:10.232Z,100207.13
2023-11-27T09:21:37.932Z,100202.09
2023-11-27T09:24:04.696Z,100211.75
2023-11-27T09:26:31.266Z,100209.66
2023-11-27T09:28:58.877Z,100210.38
2023-11-27T09:31:25.502Z,100219.66
2023-11-27T09:33:52.186Z,100223.72
2023-11-27T09:36:19.817Z,100226.41
2023-11-27T09:38:46.407Z,100232.28
2023-11-27T09:41:14.081Z,100232.41
2023-11-27T09:43:41.139Z,100236.63
2023-11-27T09:46:10.860Z,100234.94
2023-11-27T09:48:43.303Z,100230.59
2023-11-27T09:51:13.173Z,100241.84
2023-11-27T09:53:48.659Z,100247.44
2023-11-27T09:56:15.726Z,100248.88
2023-11-27T09:58:43.377Z,100256.91
2023-11-27T10:01:15.371Z,100259.56
2023-11-27T10:03:43.732Z,100259.28
2023-11-27T10:06:11.644Z,100258.72
2023-11-27T10:08:38.320Z,100271.09
2023-11-27T10:11:06.548Z,100277.84
2023-11-27T10:13:40.984Z,100264.78
2023-11-27T10:16:22.521Z,100284.03
2023-11-27T10:18:50.667Z,100283.47
2023-11-27T10:21:18.352Z,100284.31
2023-11-27T10:23:45.994Z,100280.19
2023-11-27T10:26:12.584Z,100275.84
2023-11-27T10:28:44.235Z,100277.94
2023-11-27T10:31:11.093Z,100284.13
2023-11-27T10:33:38.814Z,100291.84
2023-11-27T10:36:05.734Z,100298.03
2023-11-27T10:38:32.288Z,100297.75
2023-11-27T10:41:05.253Z,100301.97
2023-11-27T10:43:34.930Z,100304.22
2023-11-27T10:46:02.761Z,100316.16
2023-11-27T10:48:41.073Z,100312.34
2023-11-27T10:51:12.805Z,100332.72
2023-11-27T10:53:41.930Z,100320.22
2023-11-27T10:56:09.993Z,100321.75
2023-11-27T10:58:38.021Z,100319.34
2023-11-27T11:01:05.208Z,100326.50
2023-11-27T11:03:36.937Z,100323.00
2023-11-27T11:06:07.112Z,100326.09
2023-11-27T11:08:36.647Z,100325.22
2023-11-27T11:11:04.075Z,100331.44
2023-11-27T11:13:30.689Z,100323.00
2023-11-27T11:16:10.671Z,100337.31
2023-11-27T11:18:48.321Z,100332.34
2023-11-27T11:21:31.651Z,100334.78
2023-11-27T11:24:28.387Z,100334.44
2023-11-27T11:27:00.622Z,100337.69
2023-11-27T11:29:35.410Z,100335.69
2023-11-27T11:32:14.194Z,100351.97
2023-11-27T11:34:53.830Z,100347.88
2023-11-27T11:37:20.489Z,100358.03
2023-11-27T11:39:48.775Z,100342.16
2023-11-27T11:42:17.981Z,100350.19
2023-11-27T11:45:06.797Z,100356.13
2023-11-27T11:47:33.573Z,100363.41
2023-11-27T11:50:22.976Z,100360.81
2023-11-27T11:52:49.605Z,100356.88
2023-11-27T11:55:31.880Z,100360.38
2023-11-27T11:58:32.720Z,100366.63
2023-11-27T12:01:04.816Z,100363.91
2023-11-27T12:03:33.265Z,100362.31
2023-11-27T12:06:02.340Z,100359.88
2023-11-27T12:08:35.667Z,100376.44
2023-11-27T12:11:02.542Z,100365.16
2023-11-27T12:13:30.396Z,100375.72
2023-11-27T12:15:57.424Z,100376.44
2023-11-27T12:18:24.711Z,100374.31
2023-11-27T12:20:52.452Z,100372.28
2023-11-27T12:23:20.114Z,100375.72
2023-11-27T12:25:47.850Z,100368.88
2023-11-27T12:28:15.184Z,100383.38
2023-11-27T12:30:41.841Z,100385.66
2023-11-27T12:33:10.776Z,100381.59
2023-11-27T12:35:37.331Z,100403.13
2023-11-27T12:38:07.082Z,100392.84
2023-11-27T12:40:35.818Z,100392.31
2023-11-27T12:43:07.576Z,100403.94
2023-11-27T12:45:37.236Z,100401.78
2023-11-27T12:48:05.232Z,100401.97
2023-11-27T12:50:35.418Z,100413.03
2023-11-27T12:53:03.963Z,100418.25
2023-11-27T12:55:31.379Z,100410.41
2023-11-27T12:57:59.020Z,100421.09
2023-11-27T13:00:25.556Z,100401.16
2023-11-27T13:02:52.218Z,100420.09
2023-11-27T13:05:19.820Z,100417.84
2023-11-27T13:07:51.778Z,100423.72
2023-11-27T13:10:19.433Z,100420.22
2023-11-27T13:12:46.040Z,100423.84
2023-11-27T13:15:12.624Z,100417.81
2023-11-27T13:17:41.242Z,100436.09
2023-11-27T13:20:08.718Z,100430.47
2023-11-27T13:22:35.339Z,100424.31
2023-11-27T13:25:03.678Z,100424.84
2023-11-27T13:27:31.285Z,100442.97
2023-11-27T13:29:58.929Z,100433.56
2023-11-27T13:32:25.624Z,100434.97
2023-11-27T13:34:53.337Z,100436.94
2023-11-27T13:37:20.223Z,100445.25
2023-11-27T13:39:46.775Z,100450.28
2023-11-27T13:42:14.539Z,100444.41
2023-11-27T13:44:42.157Z,100444.28
2023-11-27T13:47:08.732Z,100447.50
2023-11-27T13:49:35.421Z,100450.22
2023-11-27T13:54:32.624Z,100456.91
2023-11-27T13:57:00.287Z,100460.16
2023-11-27T13:59:29.770Z,100474.34
2023-11-27T14:01:56.594Z,100480.66
2023-11-27T14:04:24.417Z,100475.44
2023-11-27T14:06:55.702Z,100475.69
2023-11-27T14:09:24.287Z,100474.34
2023-11-27T14:11:50.820Z,100474.69
2023-11-27T14:14:17.348Z,100468.91
2023-11-27T14:16:46.223Z,100482.88
2023-11-27T14:19:14.360Z,100485.81
2023-11-27T14:21:45.129Z,100475.94
2023-11-27T14:24:11.666Z,100485.63
2023-11-27T14:26:39.289Z,100486.34
2023-11-27T14:29:05.898Z,100503.59
2023-11-27T14:31:33.834Z,100494.59
2023-11-27T14:34:01.055Z,100509.69
2023-11-27T14:36:28.037Z,100506.06
2023-11-27T14:38:55.622Z,100506.66
2023-11-27T14:41:22.210Z,100503.47
2023-11-27T14:43:48.819Z,100507.25
2023-11-27T14:46:17.762Z,100506.53
2023-11-27T14:48:44.573Z,100532.13
2023-11-27T14:51:11.281Z,100516.72
2023-11-27T14:53:39.357Z,100520.25
2023-11-27T14:56:06.258Z,100529.63
2023-11-27T14:58:33.884Z,100542.03
2023-11-27T15:01:00.459Z,100545.19
2023-11-27T15:03:27.558Z,100540.13
2023-11-27T15:05:55.546Z,100549.69
2023-11-27T15:08:22.419Z,100561.19
2023-11-27T15:10:50.924Z,100564.84
2023-11-27T15:13:19.878Z,100556.38
2023-11-27T15:15:46.857Z,100556.28
2023-11-27T15:18:14.530Z,100564.13
2023-11-27T15:20:41.109Z,100569.47
2023-11-27T15:23:08.723Z,100573.75
2023-11-27T15:25:35.278Z,100569.59
2023-11-27T15:28:01.822Z,100576.63
2023-11-27T15:30:30.170Z,100576.75
2023-11-27T15:32:56.887Z,100574.47
2023-11-27T15:35:24.615Z,100588.25
2023-11-27T15:37:51.179Z,100589.22
2023-11-27T15:40:17.867Z,100597.09
2023-11-27T15:42:46.213Z,100597.63
2023-11-27T15:45:13.113Z,100595.66
2023-11-27T15:47:39.810Z,100592.88
2023-11-27T15:50:08.130Z,100603.91
2023-11-27T15:52:34.895Z,100600.75
2023-11-27T15:55:01.602Z,100607.19
2023-11-27T15:57:29.224Z,100614.47
2023-11-27T15:59:55.759Z,100611.91
2023-11-27T16:02:23.439Z,100613.63
2023-11-27T16:04:50.185Z,100615.19
2023-11-27T16:07:16.869Z,100624.03
2023-11-27T16:09:44.505Z,100632.50
2023-11-27T16:12:12.213Z,100642.09
2023-11-27T16:14:38.803Z,100637.63
2023-11-27T16:17:06.375Z,100639.44
2023-11-27T16:19:32.978Z,100621.78
2023-11-27T16:21:59.515Z,100635.22
2023-11-27T16:24:27.079Z,100645.03
2023-11-27T16:26:53.658Z,100647.09
2023-11-27T16:29:20.272Z,100650.72
2023-11-27T16:31:48.021Z,100651.09
2023-11-27T16:34:14.811Z,100654.50
2023-11-27T16:36:43.211Z,100657.19
2023-11-27T16:39:11.432Z,100661.78
2023-11-27T16:41:38.002Z,100651.59
2023-11-27T16:44:05.942Z,100647.00
2023-11-27T16:46:34.911Z,100661.28
2023-11-27T16:49:04.399Z,100657.66
2023-11-27T16:51:35.970Z,100670.50
2023-11-27T16:54:06.644Z,100678.25
2023-11-27T16:56:40.204Z,100670.63
2023-11-27T16:59:08.014Z,100678.72
2023-11-27T17:04:01.397Z,100688.91
2023-11-27T17:06:29.282Z,100680.53
2023-11-27T17:08:55.814Z,100692.41
2023-11-27T17:11:23.545Z,100702.34
2023-11-27T17:13:50.625Z,100705.00
2023-11-27T17:16:17.404Z,100715.41
2023-11-27T17:18:45.024Z,100712.88
2023-11-27T17:21:12.676Z,100705.31
2023-11-27T17:23:39.209Z,100712.16
2023-11-27T17:26:06.084Z,100713.09
2023-11-27T17:28:33.796Z,100713.56
2023-11-27T17:31:01.507Z,100711.84
2023-11-27T17:33:29.153Z,100728.44
2023-11-27T17:35:55.814Z,100710.16
2023-11-27T17:38:22.398Z,100728.97
2023-11-27T17:40:50.028Z,100727.03
2023-11-27T17:43:16.663Z,100716.22
2023-11-27T17:45:43.647Z,100718.38
2023-11-27T17:48:11.286Z,100725.16
2023-11-27T17:50:37.884Z,100727.44
2023-11-27T17:53:05.450Z,100728.25
2023-11-27T17:55:39.036Z,100733.06
2023-11-27T17:58:12.872Z,100723.34
2023-11-27T18:00:39.629Z,100732.78
2023-11-27T18:03:06.393Z,100734.94
2023-11-27T18:05:36.667Z,100729.25
2023-11-27T18:08:03.358Z,100733.84
2023-11-27T18:10:29.994Z,100743.88
2023-11-27T18:12:57.944Z,100739.75
2023-11-27T18:15:24.533Z,100737.09
2023-11-27T18:17:53.609Z,100750.38
2023-11-27T18:20:20.801Z,100754.75
2023-11-27T18:22:49.496Z,100754.84
2023-11-27T18:25:18.384Z,100752.19
2023-11-27T18:27:49.433Z,100759.44
2023-11-27T18:30:16.808Z,100760.06
2023-11-27T18:32:45.469Z,100756.44
2023-11-27T18:35:13.855Z,100742.88
2023-11-27T18:37:42.041Z,100751.25
2023-11-27T18:40:09.571Z,100760.56
2023-11-27T18:42:42.689Z,100751.88
2023-11-27T18:45:11.254Z,100758.38
2023-11-27T18:47:39.911Z,100769.75
2023-11-27T18:50:08.441Z,100767.41
2023-11-27T18:52:35.409Z,100769.34
2023-11-27T18:55:03.313Z,100763.19
2023-11-27T18:57:31.002Z,100759.38
2023-11-27T18:59:58.668Z,100773.88
2023-11-27T19:02:25.349Z,100779.63
2023-11-27T19:04:52.077Z,100778.13
2023-11-27T19:07:19.771Z,100777.28
2023-11-27T19:09:46.382Z,100784.63
2023-11-27T19:12:14.004Z,100790.03
2023-11-27T19:14:40.525Z,100798.13
2023-11-27T19:17:08.310Z,100797.50
2023-11-27T19:19:36.062Z,100799.63
2023-11-27T19:22:03.478Z,100784.75
2023-11-27T19:24:31.160Z,100792.50
2023-11-27T19:26:57.730Z,100784.75
2023-11-27T19:29:25.299Z,100788.47
2023-11-27T19:31:53.093Z,100788.81
2023-11-27T19:34:24.225Z,100801.34
2023-11-27T19:36:50.857Z,100804.44
2023-11-27T19:39:18.814Z,100796.97
2023-11-27T19:41:52.104Z,100803.59
2023-11-27T19:44:21.708Z,100799.34
2023-11-27T19:46:52.639Z,100792.50
2023-11-27T19:49:22.319Z,100795.06
2023-11-27T19:51:48.946Z,100808.34
2023-11-27T19:54:16.615Z,100813.47
2023-11-27T19:56:44.338Z,100801.34
2023-11-27T19:59:10.884Z,100811.09
2023-11-27T20:01:38.530Z,100810.78
2023-11-27T20:04:05.172Z,100811.31
2023-11-27T20:06:31.769Z,100810.25
2023-11-27T20:08:59.379Z,100835.97
2023-11-27T20:11:27.008Z,100834.25
2023-11-27T20:13:54.670Z,100826.28
2023-11-27T20:16:22.373Z,100838.28
2023-11-27T20:18:50.047Z,100839.88
2023-11-27T20:21:16.891Z,100830.44
2023-11-27T20:23:43.561Z,100830.44
2023-11-27T20:26:11.365Z,100842.44
2023-11-27T20:28:39.272Z,100834.47
2023-11-27T20:31:06.906Z,100843.50
2023-11-27T20:33:37.702Z,100854.22
2023-11-27T20:36:05.430Z,100851.03
2023-11-27T20:38:32.008Z,100854.97
2023-11-27T20:40:59.597Z,100859.75
2023-11-27T20:43:27.205Z,100860.59
2023-11-27T20:45:54.861Z,100862.50
2023-11-27T20:48:21.524Z,100855.59
2023-11-27T20:50:48.231Z,100871.63
2023-11-27T20:53:15.831Z,100872.28
2023-11-27T20:55:42.437Z,100867.06
2023-11-27T20:58:10.098Z,100866.13
2023-11-27T21:00:36.823Z,100860.91
2023-11-27T21:03:04.588Z,100871.13
2023-11-27T21:05:32.325Z,100867.63
2023-11-27T21:08:00.393Z,100865.91
2023-11-27T21:10:28.270Z,100872.50
2023-11-27T21:12:54.806Z,100876.09
2023-11-27T21:15:22.413Z,100888.31
2023-11-27T21:17:50.117Z,100887.38
2023-11-27T21:20:17.805Z,100888.31
2023-11-27T21:22:44.417Z,100896.09
2023-11-27T21:25:12.169Z,100899.38
2023-11-27T21:27:38.753Z,100895.13
2023-11-27T21:30:06.878Z,100902.69
2023-11-27T21:32:34.632Z,100897.06
2023-11-27T21:35:02.252Z,100896.22
2023-11-27T21:37:33.543Z,100896.22
2023-11-27T21:40:09.067Z,100885.34
2023-11-27T21:42:43.680Z,100891.63
2023-11-27T21:45:11.798Z,100906.94
2023-11-27T21:47:38.467Z,100904.59
2023-11-27T21:50:06.077Z,100914.06
2023-11-27T21:52:33.727Z,100904.28
2023-11-27T21:55:00.339Z,100921.72
2023-11-27T21:57:27.963Z,100929.38
2023-11-27T21:59:54.679Z,100924.91
2023-11-27T22:02:21.309Z,100926.13
2023-11-27T22:04:49.803Z,100926.97
2023-11-27T22:07:17.028Z,100935.94
2023-11-27T22:09:44.701Z,100932.13
2023-11-27T22:12:11.229Z,100931.16
2023-11-27T22:14:39.873Z,100935.63
2023-11-27T22:17:06.485Z,100926.28
2023-11-27T22:19:34.104Z,100934.25
2023-11-27T22:22:00.701Z,100936.63
2023-11-27T22:24:28.306Z,100940.25
2023-11-27T22:26:54.878Z,100941.28
2023-11-27T22:29:21.497Z,100946.59
2023-11-27T22:31:49.239Z,100941.47
2023-11-27T22:34:16.983Z,100950.53
2023-11-27T22:36:43.568Z,100949.47
2023-11-27T22:39:11.196Z,100948.63
2023-11-27T22:41:37.762Z,100958.00
2023-11-27T22:44:05.444Z,100950.75
2023-11-27T22:46:32.039Z,100961.06
2023-11-27T22:48:58.682Z,100965.63
2023-11-27T22:51:26.288Z,100963.94
2023-11-27T22:53:52.847Z,100964.88
2023-11-27T22:56:20.739Z,100964.13
2023-11-27T22:58:47.349Z,100965.84
2023-11-27T23:01:15.009Z,100962.31
2023-11-27T23:03:43.434Z,100965.31
2023-11-27T23:06:25.382Z,100971.06
2023-11-27T23:09:00.845Z,100959.78
2023-11-27T23:11:27.435Z,100968.50
2023-11-27T23:13:55.095Z,100967.97
2023-11-27T23:16:22.852Z,100969.66
2023-11-27T23:18:49.447Z,100973.91
2023-11-27T23:21:16.045Z,100976.34
2023-11-27T23:23:43.709Z,100986.25
2023-11-27T23:26:11.382Z,100979.44
2023-11-27T23:28:38.010Z,100983.59
2023-11-27T23:31:05.770Z,100983.59
2023-11-27T23:33:33.463Z,100985.06
2023-11-27T23:36:00.083Z,100996.56
2023-11-27T23:38:27.964Z,100997.19
2023-11-27T23:40:54.584Z,101002.31
2023-11-27T23:43:22.316Z,101003.56
2023-11-27T23:45:49.045Z,101000.81
2023-11-27T23:48:16.943Z,101008.59
2023-11-27T23:50:44.608Z,101009.09
2023-11-27T23:53:12.161Z,100998.78
2023-11-27T23:55:39.111Z,101002.41
2023-11-27T23:58:07.449Z,101005.63
